createdAt,value
2018-07-17T00:00:07.816Z,20.34
2018-07-17T00:01:07.814Z,20.30
2018-07-17T00:02:07.821Z,20.31
2018-07-17T00:03:07.820Z,20.31
2018-07-17T00:04:07.814Z,20.23
2018-07-17T00:05:07.814Z,20.22
2018-07-17T00:06:07.822Z,20.22
2018-07-17T00:07:07.818Z,20.17
2018-07-17T00:08:07.819Z,20.16
2018-07-17T00:09:07.817Z,20.08
2018-07-17T00:10:07.813Z,20.05
2018-07-17T00:11:07.812Z,20.10
2018-07-17T00:12:07.812Z,20.07
2018-07-17T00:13:07.813Z,20.10
2018-07-17T00:14:07.816Z,19.98
2018-07-17T00:15:07.816Z,20.04
2018-07-17T00:16:07.819Z,19.89
2018-07-17T00:17:07.816Z,19.95
2018-07-17T00:18:07.811Z,19.76
2018-07-17T00:19:07.815Z,19.85
2018-07-17T00:20:07.817Z,19.82
2018-07-17T00:21:07.815Z,19.82
2018-07-17T00:22:07.810Z,19.72
2018-07-17T00:23:07.809Z,19.76
2018-07-17T00:24:07.809Z,19.78
2018-07-17T00:25:07.811Z,19.75
2018-07-17T00:26:07.816Z,19.76
2018-07-17T00:27:07.812Z,19.79
2018-07-17T00:28:07.812Z,19.78
2018-07-17T00:29:07.811Z,19.72
2018-07-17T00:30:07.806Z,19.78
2018-07-17T00:31:07.806Z,19.86
2018-07-17T00:32:07.813Z,19.79
2018-07-17T00:33:07.805Z,19.82
2018-07-17T00:34:07.809Z,19.79
2018-07-17T00:35:07.810Z,19.78
2018-07-17T00:36:07.804Z,19.72
2018-07-17T00:37:07.803Z,19.72
2018-07-17T00:38:07.808Z,19.75
2018-07-17T00:39:07.807Z,19.79
2018-07-17T00:40:07.807Z,19.76
2018-07-17T00:41:07.807Z,19.72
2018-07-17T00:42:07.801Z,19.75
2018-07-17T00:43:07.801Z,19.76
2018-07-17T00:44:07.801Z,19.78
2018-07-17T00:45:07.799Z,19.80
2018-07-17T00:46:07.804Z,19.82
2018-07-17T00:47:07.804Z,19.89
2018-07-17T00:48:07.803Z,19.76
2018-07-17T00:49:07.802Z,19.92
2018-07-17T00:50:07.798Z,19.95
2018-07-17T00:51:07.798Z,19.94
2018-07-17T00:52:07.802Z,19.87
2018-07-17T00:53:07.800Z,20.00
2018-07-17T00:54:07.796Z,19.87
2018-07-17T00:55:07.795Z,19.86
2018-07-17T00:56:07.795Z,19.97
2018-07-17T00:57:07.795Z,19.89
2018-07-17T00:58:07.799Z,19.87
2018-07-17T00:59:07.811Z,19.89
2018-07-17T01:00:07.799Z,20.00
2018-07-17T01:01:07.869Z,20.02
2018-07-17T01:02:07.793Z,19.97
2018-07-17T01:03:07.792Z,19.87
2018-07-17T01:04:07.791Z,19.90
2018-07-17T01:05:07.790Z,19.94
2018-07-17T01:06:07.795Z,19.89
2018-07-17T01:07:07.794Z,19.89
2018-07-17T01:08:07.791Z,19.89
2018-07-17T01:09:07.788Z,19.80
2018-07-17T01:10:07.793Z,19.76
2018-07-17T01:11:07.795Z,19.75
2018-07-17T01:12:07.794Z,19.79
2018-07-17T01:13:07.793Z,19.80
2018-07-17T01:14:07.788Z,19.72
2018-07-17T01:15:07.787Z,19.75
2018-07-17T01:16:07.786Z,19.70
2018-07-17T01:17:07.786Z,19.64
2018-07-17T01:18:07.790Z,19.72
2018-07-17T01:19:07.791Z,19.68
2018-07-17T01:20:07.788Z,19.68
2018-07-17T01:21:07.787Z,19.57
2018-07-17T01:22:07.783Z,19.60
2018-07-17T01:23:07.782Z,19.58
2018-07-17T01:24:07.786Z,19.61
2018-07-17T01:25:07.784Z,19.57
2018-07-17T01:26:07.780Z,19.53
2018-07-17T01:27:07.780Z,19.49
2018-07-17T01:28:07.779Z,19.52
2018-07-17T01:29:07.779Z,19.60
2018-07-17T01:30:07.783Z,19.52
2018-07-17T01:31:07.785Z,19.55
2018-07-17T01:32:07.783Z,19.57
2018-07-17T01:33:07.781Z,19.53
2018-07-17T01:34:07.777Z,19.50
2018-07-17T01:35:07.776Z,19.58
2018-07-17T01:36:07.776Z,19.58
2018-07-17T01:37:07.773Z,19.55
2018-07-17T01:38:07.779Z,19.45
2018-07-17T01:39:07.778Z,19.47
2018-07-17T01:40:07.772Z,19.50
2018-07-17T01:41:07.770Z,19.43
2018-07-17T01:42:07.775Z,19.40
2018-07-17T01:43:07.829Z,19.43
2018-07-17T01:44:07.773Z,19.45
2018-07-17T01:45:07.777Z,19.46
2018-07-17T01:46:07.767Z,19.45
2018-07-17T01:47:07.766Z,19.40
2018-07-17T01:48:07.766Z,19.43
2018-07-17T01:49:07.765Z,19.46
2018-07-17T01:50:07.768Z,19.40
2018-07-17T01:51:07.768Z,19.47
2018-07-17T01:52:07.769Z,19.52
2018-07-17T01:53:07.768Z,19.53
2018-07-17T01:54:07.762Z,19.55
2018-07-17T01:55:07.761Z,19.55
2018-07-17T01:56:07.767Z,19.61
2018-07-17T01:57:07.764Z,19.68
2018-07-17T01:58:07.760Z,19.61
2018-07-17T01:59:07.759Z,19.64
2018-07-17T02:00:07.759Z,19.68
2018-07-17T02:01:07.763Z,19.70
2018-07-17T02:02:07.760Z,19.68
2018-07-17T02:03:07.760Z,19.65
2018-07-17T02:04:07.763Z,19.67
2018-07-17T02:05:07.759Z,19.68
2018-07-17T02:06:07.755Z,19.67
2018-07-17T02:07:07.754Z,19.71
2018-07-17T02:08:07.754Z,19.68
2018-07-17T02:09:07.755Z,19.70
2018-07-17T02:10:07.757Z,19.72
2018-07-17T02:11:07.758Z,19.76
2018-07-17T02:12:07.752Z,19.80
2018-07-17T02:13:07.751Z,19.82
2018-07-17T02:14:07.755Z,19.82
2018-07-17T02:15:07.756Z,19.76
2018-07-17T02:16:07.754Z,19.79
2018-07-17T02:17:07.752Z,19.76
2018-07-17T02:18:07.748Z,19.83
2018-07-17T02:19:07.752Z,19.75
2018-07-17T02:20:07.748Z,19.78
2018-07-17T02:21:07.748Z,19.78
2018-07-17T02:22:07.750Z,19.70
2018-07-17T02:23:07.750Z,19.71
2018-07-17T02:24:07.751Z,19.67
2018-07-17T02:25:07.750Z,19.80
2018-07-17T02:26:07.744Z,19.87
2018-07-17T02:27:07.745Z,19.90
2018-07-17T02:28:07.749Z,19.98
2018-07-17T02:29:07.746Z,20.05
2018-07-17T02:30:07.742Z,20.01
2018-07-17T02:31:07.742Z,20.00
2018-07-17T02:32:07.741Z,20.04
2018-07-17T02:33:07.741Z,20.10
2018-07-17T02:34:07.746Z,20.10
2018-07-17T02:35:07.744Z,20.12
2018-07-17T02:36:07.743Z,20.12
2018-07-17T02:37:07.742Z,20.17
2018-07-17T02:38:07.745Z,20.15
2018-07-17T02:39:07.736Z,20.13
2018-07-17T02:40:07.735Z,20.17
2018-07-17T02:41:07.735Z,20.17
2018-07-17T02:42:07.794Z,20.15
2018-07-17T02:43:07.740Z,20.10
2018-07-17T02:44:07.735Z,20.10
2018-07-17T02:45:07.736Z,20.12
2018-07-17T02:46:07.737Z,20.13
2018-07-17T02:47:07.737Z,20.05
2018-07-17T02:48:07.736Z,20.08
2018-07-17T02:49:07.736Z,20.08
2018-07-17T02:50:07.732Z,20.12
2018-07-17T02:51:07.731Z,20.01
2018-07-17T02:52:07.730Z,20.00
2018-07-17T02:53:07.730Z,20.01
2018-07-17T02:54:07.732Z,19.98
2018-07-17T02:55:07.733Z,19.94
2018-07-17T02:56:07.737Z,19.80
2018-07-17T02:57:07.734Z,19.79
2018-07-17T02:58:07.728Z,19.65
2018-07-17T02:59:07.726Z,19.75
2018-07-17T03:00:07.730Z,19.55
2018-07-17T03:01:07.729Z,19.60
2018-07-17T03:02:07.724Z,19.47
2018-07-17T03:03:07.723Z,19.57
2018-07-17T03:04:07.723Z,19.55
2018-07-17T03:05:07.721Z,19.58
2018-07-17T03:06:07.728Z,19.53
2018-07-17T03:07:07.790Z,19.64
2018-07-17T03:08:07.725Z,19.64
2018-07-17T03:09:07.724Z,19.68
2018-07-17T03:10:07.718Z,19.71
2018-07-17T03:11:07.718Z,19.75
2018-07-17T03:12:07.718Z,19.82
2018-07-17T03:13:07.717Z,19.92
2018-07-17T03:14:07.721Z,20.00
2018-07-17T03:15:07.720Z,19.94
2018-07-17T03:16:07.717Z,20.01
2018-07-17T03:17:07.714Z,19.98
2018-07-17T03:18:07.724Z,20.10
2018-07-17T03:19:07.721Z,20.10
2018-07-17T03:20:07.716Z,20.05
2018-07-17T03:21:07.716Z,20.07
2018-07-17T03:22:07.710Z,20.01
2018-07-17T03:23:07.710Z,20.02
2018-07-17T03:24:07.709Z,20.00
2018-07-17T03:25:07.709Z,20.02
2018-07-17T03:26:07.712Z,19.97
2018-07-17T03:27:07.711Z,20.02
2018-07-17T03:28:07.717Z,19.97
2018-07-17T03:29:07.710Z,19.90
2018-07-17T03:30:07.706Z,19.97
2018-07-17T03:31:07.705Z,20.01
2018-07-17T03:32:07.710Z,20.00
2018-07-17T03:33:07.709Z,20.00
2018-07-17T03:34:07.704Z,20.00
2018-07-17T03:35:07.704Z,20.02
2018-07-17T03:36:07.703Z,20.04
2018-07-17T03:37:07.701Z,19.95
2018-07-17T03:38:07.706Z,20.00
2018-07-17T03:39:07.705Z,20.01
2018-07-17T03:40:07.706Z,20.00
2018-07-17T03:41:07.703Z,19.87
2018-07-17T03:42:07.698Z,20.04
2018-07-17T03:43:07.698Z,20.00
2018-07-17T03:44:07.698Z,20.01
2018-07-17T03:45:07.697Z,19.94
2018-07-17T03:46:07.706Z,19.98
2018-07-17T03:47:07.701Z,19.90
2018-07-17T03:48:07.696Z,19.80
2018-07-17T03:49:07.699Z,19.89
2018-07-17T03:50:07.698Z,19.82
2018-07-17T03:51:07.699Z,19.80
2018-07-17T03:52:07.699Z,19.79
2018-07-17T03:53:07.697Z,19.65
2018-07-17T03:54:07.692Z,19.61
2018-07-17T03:55:07.692Z,19.62
2018-07-17T03:56:07.691Z,19.64
2018-07-17T03:57:07.693Z,19.70
2018-07-17T03:58:07.693Z,19.71
2018-07-17T03:59:07.693Z,19.78
2018-07-17T04:00:07.693Z,19.75
2018-07-17T04:01:07.692Z,19.76
2018-07-17T04:02:07.686Z,19.76
2018-07-17T04:03:07.686Z,19.72
2018-07-17T04:04:07.694Z,19.71
2018-07-17T04:05:07.689Z,19.67
2018-07-17T04:06:07.685Z,19.61
2018-07-17T04:07:07.683Z,19.67
2018-07-17T04:08:07.683Z,19.64
2018-07-17T04:09:07.682Z,19.80
2018-07-17T04:10:07.688Z,19.68
2018-07-17T04:11:07.686Z,19.67
2018-07-17T04:12:07.686Z,19.60
2018-07-17T04:13:07.685Z,19.61
2018-07-17T04:14:07.678Z,19.68
2018-07-17T04:15:07.677Z,19.70
2018-07-17T04:16:07.677Z,19.71
2018-07-17T04:17:07.675Z,19.67
2018-07-17T04:18:07.679Z,19.68
2018-07-17T04:19:07.678Z,19.67
2018-07-17T04:20:07.677Z,19.68
2018-07-17T04:21:07.673Z,19.70
2018-07-17T04:22:07.677Z,19.80
2018-07-17T04:23:07.676Z,19.72
2018-07-17T04:24:07.677Z,19.80
2018-07-17T04:25:07.676Z,19.76
2018-07-17T04:26:07.669Z,19.75
2018-07-17T04:27:07.669Z,19.94
2018-07-17T04:28:07.669Z,19.95
2018-07-17T04:29:07.667Z,20.00
2018-07-17T04:30:07.671Z,20.07
2018-07-17T04:31:07.671Z,20.05
2018-07-17T04:32:07.670Z,20.16
2018-07-17T04:33:07.669Z,20.20
2018-07-17T04:34:07.664Z,20.23
2018-07-17T04:35:07.663Z,20.33
2018-07-17T04:36:07.670Z,20.31
2018-07-17T04:37:07.669Z,20.35
2018-07-17T04:38:07.665Z,20.38
2018-07-17T04:39:07.662Z,20.35
2018-07-17T04:40:07.663Z,20.33
2018-07-17T04:41:07.661Z,20.34
2018-07-17T04:42:07.666Z,20.35
2018-07-17T04:43:07.668Z,20.35
2018-07-17T04:44:07.739Z,20.33
2018-07-17T04:45:07.664Z,20.41
2018-07-17T04:46:07.658Z,20.42
2018-07-17T04:47:07.658Z,20.46
2018-07-17T04:48:07.659Z,20.50
2018-07-17T04:49:07.659Z,20.41
2018-07-17T04:50:07.663Z,20.41
2018-07-17T04:51:07.664Z,20.50
2018-07-17T04:52:07.658Z,20.48
2018-07-17T04:53:07.657Z,20.46
2018-07-17T04:54:07.662Z,20.48
2018-07-17T04:55:07.665Z,20.48
2018-07-17T04:56:07.661Z,20.48
2018-07-17T04:57:07.659Z,20.60
2018-07-17T04:58:07.658Z,20.66
2018-07-17T04:59:07.656Z,20.71
2018-07-17T05:00:07.655Z,20.82
2018-07-17T05:01:07.654Z,20.97
2018-07-17T05:02:07.660Z,21.06
2018-07-17T05:03:07.659Z,21.16
2018-07-17T05:04:07.661Z,21.27
2018-07-17T05:05:07.659Z,21.45
2018-07-17T05:06:07.657Z,21.55
2018-07-17T05:07:07.656Z,21.64
2018-07-17T05:08:07.662Z,21.82
2018-07-17T05:09:07.662Z,22.09
2018-07-17T05:10:07.660Z,22.17
2018-07-17T05:11:07.663Z,22.52
2018-07-17T05:12:07.661Z,22.74
2018-07-17T05:13:07.661Z,22.99
2018-07-17T05:14:07.668Z,23.31
2018-07-17T05:15:07.670Z,23.64
2018-07-17T05:16:07.671Z,24.02
2018-07-17T05:17:07.673Z,24.41
2018-07-17T05:18:07.671Z,24.75
2018-07-17T05:19:07.674Z,25.17
2018-07-17T05:20:07.692Z,25.57
2018-07-17T05:21:07.679Z,25.82
2018-07-17T05:22:07.688Z,25.93
2018-07-17T05:23:07.691Z,26.32
2018-07-17T05:24:07.689Z,26.72
2018-07-17T05:25:07.692Z,26.97
2018-07-17T05:26:07.704Z,27.20
2018-07-17T05:27:07.704Z,27.16
2018-07-17T05:28:07.708Z,27.40
2018-07-17T05:29:07.711Z,27.45
2018-07-17T05:30:07.711Z,27.63
2018-07-17T05:31:07.714Z,27.80
2018-07-17T05:32:07.720Z,28.01
2018-07-17T05:33:07.724Z,28.24
2018-07-17T05:34:07.732Z,28.51
2018-07-17T05:35:07.794Z,28.82
2018-07-17T05:36:07.743Z,29.20
2018-07-17T05:37:07.746Z,29.63
2018-07-17T05:38:07.756Z,30.01
2018-07-17T05:39:07.752Z,30.15
2018-07-17T05:40:07.762Z,30.37
2018-07-17T05:41:07.766Z,30.61
2018-07-17T05:42:07.767Z,30.88
2018-07-17T05:43:07.772Z,31.03
2018-07-17T05:44:07.777Z,31.37
2018-07-17T05:45:07.781Z,31.69
2018-07-17T05:46:07.793Z,31.95
2018-07-17T05:47:07.799Z,32.06
2018-07-17T05:48:07.806Z,32.12
2018-07-17T05:49:07.811Z,32.16
2018-07-17T05:50:07.812Z,32.09
2018-07-17T05:51:07.819Z,32.24
2018-07-17T05:52:07.827Z,32.51
2018-07-17T05:53:07.832Z,32.72
2018-07-17T05:54:07.848Z,33.00
2018-07-17T05:55:07.849Z,33.21
2018-07-17T05:56:07.852Z,33.31
2018-07-17T05:57:07.861Z,33.50
2018-07-17T05:58:07.870Z,33.75
2018-07-17T05:59:07.879Z,33.99
2018-07-17T06:00:07.887Z,34.26
2018-07-17T06:01:07.897Z,34.61
2018-07-17T06:02:07.896Z,34.72
2018-07-17T06:03:07.904Z,34.99
2018-07-17T06:04:07.916Z,35.05
2018-07-17T06:05:07.919Z,35.25
2018-07-17T06:06:07.933Z,35.39
2018-07-17T06:07:07.941Z,35.58
2018-07-17T06:08:07.950Z,35.81
2018-07-17T06:09:07.959Z,35.98
2018-07-17T06:10:07.964Z,36.16
2018-07-17T06:11:07.971Z,36.40
2018-07-17T06:12:07.985Z,36.67
2018-07-17T06:13:07.993Z,36.89
2018-07-17T06:14:07.999Z,36.97
2018-07-17T06:15:08.008Z,37.08
2018-07-17T06:16:08.018Z,37.27
2018-07-17T06:17:08.027Z,37.47
2018-07-17T06:18:08.043Z,37.62
2018-07-17T06:19:08.208Z,37.82
2018-07-17T06:20:08.062Z,37.99
2018-07-17T06:21:08.073Z,38.10
2018-07-17T06:22:08.194Z,38.24
2018-07-17T06:23:08.090Z,38.47
2018-07-17T06:24:08.099Z,38.55
2018-07-17T06:25:08.281Z,38.77
2018-07-17T06:26:08.125Z,38.67
2018-07-17T06:27:08.136Z,38.84
2018-07-17T06:28:08.144Z,38.74
2018-07-17T06:29:08.154Z,38.50
2018-07-17T06:30:08.171Z,38.16
2018-07-17T06:31:08.181Z,38.40
2018-07-17T06:32:08.196Z,37.66
2018-07-17T06:33:08.336Z,37.63
2018-07-17T06:34:08.260Z,37.68
2018-07-17T06:35:08.228Z,37.63
2018-07-17T06:36:08.237Z,37.43
2018-07-17T06:37:08.250Z,36.82
2018-07-17T06:38:08.267Z,36.37
2018-07-17T06:39:08.282Z,36.06
2018-07-17T06:40:08.290Z,35.69
2018-07-17T06:41:08.302Z,35.10
2018-07-17T06:42:08.310Z,34.88
2018-07-17T06:43:08.322Z,34.34
2018-07-17T06:44:08.338Z,34.06
2018-07-17T06:45:08.349Z,33.89
2018-07-17T06:46:08.359Z,34.37
2018-07-17T06:47:08.367Z,34.95
2018-07-17T06:48:08.379Z,35.50
2018-07-17T06:49:08.394Z,35.80
2018-07-17T06:50:08.449Z,35.49
2018-07-17T06:51:08.417Z,35.00
2018-07-17T06:52:08.429Z,34.58
2018-07-17T06:53:08.437Z,34.31
2018-07-17T06:54:08.445Z,34.05
2018-07-17T06:55:08.458Z,33.86
2018-07-17T06:56:08.467Z,33.65
2018-07-17T06:57:08.475Z,33.31
2018-07-17T06:58:08.490Z,32.99
2018-07-17T06:59:08.502Z,32.63
2018-07-17T07:00:08.506Z,32.53
2018-07-17T07:01:08.515Z,32.17
2018-07-17T07:02:08.529Z,31.78
2018-07-17T07:03:08.539Z,31.41
2018-07-17T07:04:08.549Z,31.01
2018-07-17T07:05:08.602Z,30.81
2018-07-17T07:06:08.557Z,30.66
2018-07-17T07:07:08.569Z,30.45
2018-07-17T07:08:08.575Z,30.37
2018-07-17T07:09:08.582Z,30.08
2018-07-17T07:10:08.594Z,29.84
2018-07-17T07:11:08.676Z,29.69
2018-07-17T07:12:08.610Z,29.49
2018-07-17T07:13:08.616Z,29.48
2018-07-17T07:14:08.619Z,29.23
2018-07-17T07:15:08.625Z,28.73
2018-07-17T07:16:08.643Z,28.61
2018-07-17T07:17:08.642Z,28.51
2018-07-17T07:18:08.645Z,28.28
2018-07-17T07:19:08.652Z,28.27
2018-07-17T07:20:08.657Z,28.08
2018-07-17T07:21:08.664Z,27.91
2018-07-17T07:22:08.674Z,27.80
2018-07-17T07:23:08.681Z,27.55
2018-07-17T07:24:08.687Z,27.62
2018-07-17T07:25:08.692Z,27.42
2018-07-17T07:26:08.759Z,27.34
2018-07-17T07:27:08.698Z,27.25
2018-07-17T07:28:08.704Z,27.40
2018-07-17T07:29:08.708Z,27.46
2018-07-17T07:30:08.721Z,27.45
2018-07-17T07:31:08.727Z,27.45
2018-07-17T07:32:08.729Z,27.66
2018-07-17T07:33:08.730Z,27.83
2018-07-17T07:34:08.740Z,27.84
2018-07-17T07:35:08.747Z,27.91
2018-07-17T07:36:08.752Z,28.02
2018-07-17T07:37:08.803Z,28.08
2018-07-17T07:38:08.758Z,28.17
2018-07-17T07:39:08.762Z,28.24
2018-07-17T07:40:08.769Z,28.13
2018-07-17T07:41:08.773Z,28.23
2018-07-17T07:42:08.784Z,28.36
2018-07-17T07:43:08.791Z,28.51
2018-07-17T07:44:08.794Z,28.54
2018-07-17T07:45:08.799Z,28.55
2018-07-17T07:46:08.799Z,28.69
2018-07-17T07:47:08.805Z,28.67
2018-07-17T07:48:08.818Z,28.80
2018-07-17T07:49:08.824Z,28.85
2018-07-17T07:50:08.824Z,28.74
2018-07-17T07:51:08.825Z,28.83
2018-07-17T07:52:08.834Z,29.03
2018-07-17T07:53:08.835Z,29.08
2018-07-17T07:54:08.846Z,29.30
2018-07-17T07:55:08.855Z,29.39
2018-07-17T07:56:08.860Z,29.47
2018-07-17T07:57:08.864Z,29.67
2018-07-17T07:58:08.868Z,29.71
2018-07-17T07:59:08.879Z,29.81
2018-07-17T08:00:08.876Z,29.82
2018-07-17T08:01:08.883Z,29.92
2018-07-17T08:02:08.893Z,30.01
2018-07-17T08:03:08.898Z,29.99
2018-07-17T08:04:08.901Z,30.03
2018-07-17T08:05:08.905Z,30.21
2018-07-17T08:06:08.920Z,30.30
2018-07-17T08:07:08.922Z,30.36
2018-07-17T08:08:08.930Z,30.76
2018-07-17T08:09:08.935Z,30.98
2018-07-17T08:10:08.936Z,31.27
2018-07-17T08:11:08.943Z,31.64
2018-07-17T08:12:09.019Z,32.44
2018-07-17T08:13:08.955Z,33.63
2018-07-17T08:14:08.968Z,34.43
2018-07-17T08:15:08.974Z,35.07
2018-07-17T08:16:08.982Z,35.76
2018-07-17T08:17:08.987Z,36.59
2018-07-17T08:18:08.992Z,37.34
2018-07-17T08:19:09.003Z,37.85
2018-07-17T08:20:09.016Z,38.49
2018-07-17T08:21:09.023Z,38.53
2018-07-17T08:22:09.033Z,39.10
2018-07-17T08:23:09.038Z,39.51
2018-07-17T08:24:09.051Z,40.04
2018-07-17T08:25:09.063Z,40.60
2018-07-17T08:26:09.078Z,40.90
2018-07-17T08:27:09.093Z,41.31
2018-07-17T08:28:09.103Z,41.55
2018-07-17T08:29:09.116Z,41.97
2018-07-17T08:30:09.124Z,42.46
2018-07-17T08:31:09.139Z,42.79
2018-07-17T08:32:09.153Z,42.49
2018-07-17T08:33:09.166Z,42.20
2018-07-17T08:34:09.186Z,42.30
2018-07-17T08:35:09.204Z,41.88
2018-07-17T08:36:09.211Z,42.11
2018-07-17T08:37:09.226Z,42.77
2018-07-17T08:38:09.250Z,42.94
2018-07-17T08:39:09.265Z,43.14
2018-07-17T08:40:09.278Z,43.25
2018-07-17T08:41:09.295Z,43.55
2018-07-17T08:42:09.311Z,43.90
2018-07-17T08:43:09.380Z,43.78
2018-07-17T08:44:09.343Z,43.75
2018-07-17T08:45:09.360Z,44.00
2018-07-17T08:46:09.380Z,44.43
2018-07-17T08:47:09.397Z,44.47
2018-07-17T08:48:09.414Z,43.44
2018-07-17T08:49:09.447Z,43.97
2018-07-17T08:50:09.444Z,44.12
2018-07-17T08:51:09.464Z,44.27
2018-07-17T08:52:09.485Z,44.10
2018-07-17T08:53:09.502Z,44.62
2018-07-17T08:54:09.517Z,44.72
2018-07-17T08:55:09.536Z,44.96
2018-07-17T08:56:09.553Z,45.17
2018-07-17T08:57:09.572Z,44.66
2018-07-17T08:58:09.597Z,44.78
2018-07-17T08:59:09.615Z,44.64
2018-07-17T09:00:09.636Z,44.84
2018-07-17T09:01:09.652Z,45.22
2018-07-17T09:02:09.668Z,45.16
2018-07-17T09:03:09.686Z,44.53
2018-07-17T09:04:09.709Z,44.78
2018-07-17T09:05:09.725Z,44.85
2018-07-17T09:06:09.750Z,44.13
2018-07-17T09:07:09.770Z,43.86
2018-07-17T09:08:09.785Z,43.67
2018-07-17T09:09:09.802Z,43.14
2018-07-17T09:10:09.829Z,42.68
2018-07-17T09:11:09.851Z,42.94
2018-07-17T09:12:09.869Z,42.76
2018-07-17T09:13:09.959Z,42.42
2018-07-17T09:14:09.899Z,42.02
2018-07-17T09:15:09.914Z,41.93
2018-07-17T09:16:09.934Z,41.54
2018-07-17T09:17:09.951Z,41.07
2018-07-17T09:18:09.970Z,40.71
2018-07-17T09:19:09.990Z,40.53
2018-07-17T09:20:10.008Z,40.24
2018-07-17T09:21:10.024Z,40.36
2018-07-17T09:22:10.035Z,40.72
2018-07-17T09:23:10.052Z,41.13
2018-07-17T09:24:10.072Z,41.19
2018-07-17T09:25:10.093Z,40.90
2018-07-17T09:26:10.099Z,40.67
2018-07-17T09:27:10.128Z,40.86
2018-07-17T09:28:10.154Z,41.00
2018-07-17T09:29:10.152Z,41.31
2018-07-17T09:30:10.168Z,41.97
2018-07-17T09:31:10.186Z,42.17
2018-07-17T09:32:10.200Z,42.80
2018-07-17T09:33:10.217Z,43.10
2018-07-17T09:34:10.229Z,42.96
2018-07-17T09:35:10.248Z,43.14
2018-07-17T09:36:10.263Z,43.13
2018-07-17T09:37:10.279Z,43.36
2018-07-17T09:38:10.301Z,43.97
2018-07-17T09:39:10.319Z,44.32
2018-07-17T09:40:10.332Z,44.10
2018-07-17T09:41:10.347Z,44.02
2018-07-17T09:42:10.371Z,43.60
2018-07-17T09:43:10.389Z,43.75
2018-07-17T09:44:10.415Z,44.43
2018-07-17T09:45:10.423Z,44.74
2018-07-17T09:46:10.437Z,45.24
2018-07-17T09:47:10.456Z,45.73
2018-07-17T09:48:10.474Z,45.88
2018-07-17T09:49:10.494Z,46.27
2018-07-17T09:50:10.514Z,46.67
2018-07-17T09:51:10.534Z,46.80
2018-07-17T09:52:10.558Z,46.65
2018-07-17T09:53:10.572Z,46.91
2018-07-17T09:54:10.601Z,46.45
2018-07-17T09:55:10.606Z,46.80
2018-07-17T09:56:10.633Z,47.08
2018-07-17T09:57:10.652Z,47.08
2018-07-17T09:58:10.666Z,47.24
2018-07-17T09:59:10.686Z,47.22
2018-07-17T10:00:10.707Z,47.53
2018-07-17T10:01:10.728Z,47.21
2018-07-17T10:02:10.753Z,47.27
2018-07-17T10:03:10.774Z,47.17
2018-07-17T10:04:10.796Z,47.29
2018-07-17T10:05:10.817Z,47.53
2018-07-17T10:06:10.833Z,47.09
2018-07-17T10:07:10.877Z,47.20
2018-07-17T10:08:10.876Z,46.87
2018-07-17T10:09:10.897Z,47.12
2018-07-17T10:10:10.923Z,47.21
2018-07-17T10:11:10.945Z,47.36
2018-07-17T10:12:10.964Z,47.47
2018-07-17T10:13:10.984Z,47.64
2018-07-17T10:14:11.012Z,47.51
2018-07-17T10:15:11.035Z,47.46
2018-07-17T10:16:11.056Z,47.64
2018-07-17T10:17:11.079Z,47.44
2018-07-17T10:18:11.097Z,47.36
2018-07-17T10:19:11.118Z,47.51
2018-07-17T10:20:11.166Z,47.75
2018-07-17T10:21:11.162Z,47.81
2018-07-17T10:22:11.191Z,47.93
2018-07-17T10:23:11.214Z,48.07
2018-07-17T10:24:11.239Z,47.40
2018-07-17T10:25:11.260Z,46.89
2018-07-17T10:26:11.317Z,46.89
2018-07-17T10:27:11.302Z,47.25
2018-07-17T10:28:11.326Z,47.28
2018-07-17T10:29:11.347Z,47.06
2018-07-17T10:30:11.366Z,46.99
2018-07-17T10:31:11.388Z,46.93
2018-07-17T10:32:11.438Z,46.83
2018-07-17T10:33:11.442Z,45.77
2018-07-17T10:34:11.460Z,45.94
2018-07-17T10:35:11.484Z,45.99
2018-07-17T10:36:11.512Z,46.24
2018-07-17T10:37:11.528Z,46.53
2018-07-17T10:38:11.547Z,46.77
2018-07-17T10:39:11.568Z,46.94
2018-07-17T10:40:11.591Z,46.90
2018-07-17T10:41:11.613Z,46.94
2018-07-17T10:42:11.638Z,47.09
2018-07-17T10:43:11.665Z,47.20
2018-07-17T10:44:11.680Z,47.09
2018-07-17T10:45:11.707Z,46.96
2018-07-17T10:46:11.729Z,47.02
2018-07-17T10:47:11.752Z,47.10
2018-07-17T10:48:11.775Z,46.46
2018-07-17T10:49:11.797Z,46.27
2018-07-17T10:50:11.814Z,45.50
2018-07-17T10:51:11.839Z,45.65
2018-07-17T10:52:11.861Z,45.97
2018-07-17T10:53:11.882Z,45.88
2018-07-17T10:54:11.909Z,45.65
2018-07-17T10:55:11.935Z,45.45
2018-07-17T10:56:11.955Z,45.48
2018-07-17T10:57:11.977Z,45.73
2018-07-17T10:58:11.995Z,45.83
2018-07-17T10:59:12.018Z,45.97
2018-07-17T11:00:12.046Z,46.17
2018-07-17T11:01:12.067Z,45.76
2018-07-17T11:02:12.084Z,45.39
2018-07-17T11:03:12.111Z,44.25
2018-07-17T11:04:12.129Z,43.30
2018-07-17T11:05:12.151Z,43.26
2018-07-17T11:06:12.177Z,43.48
2018-07-17T11:07:12.201Z,43.67
2018-07-17T11:08:12.224Z,43.52
2018-07-17T11:09:12.244Z,43.91
2018-07-17T11:10:12.262Z,44.15
2018-07-17T11:11:12.282Z,44.35
2018-07-17T11:12:12.304Z,44.37
2018-07-17T11:13:12.325Z,44.18
2018-07-17T11:14:12.353Z,43.77
2018-07-17T11:15:12.375Z,43.89
2018-07-17T11:16:12.391Z,44.27
2018-07-17T11:17:12.417Z,44.43
2018-07-17T11:18:12.442Z,44.51
2018-07-17T11:19:12.462Z,44.56
2018-07-17T11:20:12.485Z,44.91
2018-07-17T11:21:12.505Z,44.76
2018-07-17T11:22:12.521Z,44.61
2018-07-17T11:23:12.544Z,44.40
2018-07-17T11:24:12.565Z,43.78
2018-07-17T11:25:12.585Z,43.37
2018-07-17T11:26:12.612Z,43.16
2018-07-17T11:27:12.639Z,42.87
2018-07-17T11:28:12.657Z,42.23
2018-07-17T11:29:12.675Z,41.70
2018-07-17T11:30:12.693Z,41.01
2018-07-17T11:31:12.711Z,40.71
2018-07-17T11:32:12.735Z,40.24
2018-07-17T11:33:12.752Z,40.04
2018-07-17T11:34:12.766Z,39.88
2018-07-17T11:35:12.784Z,39.81
2018-07-17T11:36:12.802Z,39.61
2018-07-17T11:37:12.819Z,39.62
2018-07-17T11:38:12.848Z,39.34
2018-07-17T11:39:12.858Z,39.05
2018-07-17T11:40:12.875Z,38.43
2018-07-17T11:41:12.892Z,38.43
2018-07-17T11:42:12.903Z,38.30
2018-07-17T11:43:12.916Z,38.04
2018-07-17T11:44:12.932Z,37.82
2018-07-17T11:45:12.947Z,37.77
2018-07-17T11:46:12.964Z,37.38
2018-07-17T11:47:12.985Z,37.43
2018-07-17T11:48:12.992Z,37.35
2018-07-17T11:49:13.010Z,37.40
2018-07-17T11:50:13.018Z,37.33
2018-07-17T11:51:13.032Z,36.93
2018-07-17T11:52:13.047Z,36.93
2018-07-17T11:53:13.121Z,36.79
2018-07-17T11:54:13.066Z,36.69
2018-07-17T11:55:13.080Z,36.78
2018-07-17T11:56:13.092Z,36.86
2018-07-17T11:57:13.102Z,36.86
2018-07-17T11:58:13.120Z,36.50
2018-07-17T11:59:13.275Z,36.15
2018-07-17T12:00:13.145Z,36.11
2018-07-17T12:01:13.154Z,35.77
2018-07-17T12:02:13.161Z,35.78
2018-07-17T12:03:13.178Z,35.55
2018-07-17T12:04:13.187Z,35.56
2018-07-17T12:05:13.197Z,35.34
2018-07-17T12:06:13.204Z,35.15
2018-07-17T12:07:13.214Z,35.03
2018-07-17T12:08:13.224Z,35.03
2018-07-17T12:09:13.236Z,35.20
2018-07-17T12:10:13.250Z,35.07
2018-07-17T12:11:13.263Z,34.91
2018-07-17T12:12:13.271Z,34.95
2018-07-17T12:13:13.278Z,34.83
2018-07-17T12:14:13.284Z,34.73
2018-07-17T12:15:13.293Z,34.81
2018-07-17T12:16:13.304Z,34.90
2018-07-17T12:17:13.317Z,34.83
2018-07-17T12:18:13.327Z,34.94
2018-07-17T12:19:13.337Z,35.10
2018-07-17T12:20:13.421Z,35.13
2018-07-17T12:21:13.350Z,35.13
2018-07-17T12:22:13.363Z,35.07
2018-07-17T12:23:13.373Z,35.15
2018-07-17T12:24:13.381Z,34.99
2018-07-17T12:25:13.389Z,35.13
2018-07-17T12:26:13.394Z,35.21
2018-07-17T12:27:13.403Z,35.05
2018-07-17T12:28:13.414Z,34.80
2018-07-17T12:29:13.421Z,34.52
2018-07-17T12:30:13.436Z,34.65
2018-07-17T12:31:13.445Z,34.72
2018-07-17T12:32:13.453Z,34.94
2018-07-17T12:33:13.462Z,34.93
2018-07-17T12:34:13.467Z,35.09
2018-07-17T12:35:13.475Z,35.09
2018-07-17T12:36:13.489Z,35.13
2018-07-17T12:37:13.497Z,35.09
2018-07-17T12:38:13.502Z,35.09
2018-07-17T12:39:13.511Z,35.02
2018-07-17T12:40:13.519Z,35.17
2018-07-17T12:41:13.527Z,34.93
2018-07-17T12:42:13.540Z,34.93
2018-07-17T12:43:13.550Z,34.95
2018-07-17T12:44:13.574Z,34.94
2018-07-17T12:45:13.567Z,35.09
2018-07-17T12:46:13.571Z,35.20
2018-07-17T12:47:13.580Z,35.13
2018-07-17T12:48:13.589Z,35.03
2018-07-17T12:49:13.597Z,34.78
2018-07-17T12:50:13.611Z,34.64
2018-07-17T12:51:13.619Z,34.67
2018-07-17T12:52:13.623Z,34.67